Time;durP1;ratioP1;P1;durP2;ratioP2;P2;SDS_P1;SDS_P2;PMS_P1;PMS_P2;Temp;Humidity;BMP_temperature;BMP_pressure;BME280_temperature;BME280_humidity;BME280_pressure;Samples;Min_cycle;Max_cycle;Signal;HPM_P1;HPM_P2
2022/01/18 00:01:58;;;;;;;10.15;1.73;;;3.10;99.90;;;;;;4942724;29;20020;-86
2022/01/18 00:04:24;;;;;;;8.75;2.08;;;3.10;99.90;;;;;;4942698;29;20035;-86
2022/01/18 00:06:52;;;;;;;7.22;2.28;;;3.10;99.90;;;;;;4942494;29;20020;-86
2022/01/18 00:09:22;;;;;;;8.35;2.13;;;3.10;99.90;;;;;;4942504;29;20110;-85
2022/01/18 00:11:57;;;;;;;14.20;2.03;;;3.00;99.90;;;;;;4941937;29;20039;-86
2022/01/18 00:14:38;;;;;;;7.72;1.90;;;3.00;99.90;;;;;;4942098;29;20050;-87
2022/01/18 00:17:39;;;;;;;10.70;2.15;;;3.00;99.90;;;;;;4942347;29;20016;-87
2022/01/18 00:20:02;;;;;;;12.05;1.63;;;3.00;99.90;;;;;;4942412;29;20043;-86
2022/01/18 00:22:29;;;;;;;18.00;2.45;;;3.00;99.90;;;;;;4942064;29;20024;-85
2022/01/18 00:24:57;;;;;;;10.40;2.20;;;3.00;99.90;;;;;;4942613;29;20020;-86
2022/01/18 00:27:23;;;;;;;14.73;2.17;;;3.00;99.90;;;;;;4940669;29;20032;-86
2022/01/18 00:30:42;;;;;;;15.48;2.20;;;3.00;99.90;;;;;;4941373;29;20027;-86
2022/01/18 00:35:19;;;;;;;17.73;2.33;;;3.00;99.90;;;;;;4941995;29;20264;-86
2022/01/18 00:37:54;;;;;;;11.25;3.08;;;2.90;99.90;;;;;;4941683;29;20053;-85
2022/01/18 00:40:20;;;;;;;14.57;2.42;;;2.90;99.90;;;;;;4941314;29;20076;-86
2022/01/18 00:42:46;;;;;;;16.08;2.45;;;2.90;99.90;;;;;;4941062;29;20020;-86
2022/01/18 00:45:12;;;;;;;12.75;2.40;;;2.90;99.90;;;;;;4942051;29;20035;-87
2022/01/18 00:47:38;;;;;;;9.20;2.15;;;2.90;99.90;;;;;;4940840;29;20071;-86
2022/01/18 00:50:04;;;;;;;11.95;2.33;;;2.90;99.90;;;;;;4935626;29;20096;-85
2022/01/18 00:52:34;;;;;;;8.65;2.33;;;2.80;99.90;;;;;;4934702;29;20016;-87
2022/01/18 00:55:01;;;;;;;19.05;2.80;;;2.80;99.90;;;;;;4941456;29;20031;-85
2022/01/18 00:57:28;;;;;;;16.70;2.83;;;2.80;99.90;;;;;;4940162;29;20100;-86
2022/01/18 00:59:54;;;;;;;7.25;1.95;;;2.90;99.90;;;;;;4929461;29;20043;-87
2022/01/18 01:02:20;;;;;;;8.90;2.38;;;2.90;99.90;;;;;;4936905;29;20036;-88
2022/01/18 01:04:49;;;;;;;13.43;2.55;;;2.80;99.90;;;;;;4940243;29;20709;-85
2022/01/18 01:07:20;;;;;;;11.20;2.67;;;2.90;99.90;;;;;;4940715;29;20031;-87
2022/01/18 01:09:46;;;;;;;12.65;3.53;;;2.90;99.90;;;;;;4928907;29;20113;-87
2022/01/18 01:12:14;;;;;;;14.00;3.25;;;2.90;99.90;;;;;;4929454;29;20048;-87
2022/01/18 01:14:41;;;;;;;22.27;2.40;;;2.90;99.90;;;;;;4935873;29;20043;-87
2022/01/18 01:17:37;;;;;;;10.85;2.53;;;2.90;99.90;;;;;;4938340;29;20027;-86
2022/01/18 01:42:28;;;;;;;11.05;2.45;;;2.80;99.90;;;;;;4950592;29;20056;-87
2022/01/18 01:44:56;;;;;;;17.20;3.10;;;2.80;99.90;;;;;;4932955;29;20068;-87
2022/01/18 01:47:32;;;;;;;8.85;2.60;;;2.80;99.90;;;;;;4935953;29;20035;-88
2022/01/18 01:49:58;;;;;;;13.15;2.80;;;2.80;99.90;;;;;;4933152;29;20039;-87
2022/01/18 01:52:24;;;;;;;15.40;3.38;;;2.80;99.90;;;;;;4939229;29;20021;-87
2022/01/18 01:54:50;;;;;;;13.50;2.60;;;2.80;99.90;;;;;;4949701;29;20268;-89
2022/01/18 01:57:16;;;;;;;9.50;2.35;;;2.80;99.90;;;;;;4929667;29;20044;-88
2022/01/18 01:59:42;;;;;;;10.05;2.67;;;2.80;99.90;;;;;;4913467;29;20099;-89
2022/01/18 02:02:08;;;;;;;13.73;2.88;;;2.80;99.90;;;;;;4928249;29;20028;-88
2022/01/18 02:04:34;;;;;;;17.70;2.88;;;2.80;99.90;;;;;;4932158;29;20031;-88
2022/01/18 02:07:00;;;;;;;15.35;2.67;;;2.80;99.90;;;;;;4935656;29;20024;-87
2022/01/18 02:09:26;;;;;;;12.32;2.20;;;2.80;99.90;;;;;;4936834;29;20035;-88
2022/01/18 02:11:55;;;;;;;12.60;3.17;;;2.80;99.90;;;;;;4939250;29;20028;-87
2022/01/18 02:14:23;;;;;;;14.13;2.97;;;2.80;99.90;;;;;;4939209;29;20024;-89
2022/01/18 02:22:17;;;;;;;8.93;2.67;;;2.80;99.90;;;;;;4941723;29;20036;-88
2022/01/18 02:24:43;;;;;;;10.68;2.38;;;2.80;99.90;;;;;;4941774;29;20031;-86
2022/01/18 02:27:09;;;;;;;16.15;2.85;;;2.80;99.90;;;;;;4939999;29;20044;-87
2022/01/18 02:29:35;;;;;;;11.20;2.78;;;2.80;99.90;;;;;;4940361;29;20013;-89
2022/01/18 02:32:01;;;;;;;14.45;3.20;;;2.80;99.90;;;;;;4924480;29;20038;-88
2022/01/18 02:34:27;;;;;;;7.45;2.80;;;2.80;99.90;;;;;;4937496;29;20043;-89
2022/01/18 02:36:54;;;;;;;9.95;2.50;;;2.80;99.90;;;;;;4940632;29;20043;-88
2022/01/18 02:39:23;;;;;;;11.68;2.28;;;2.80;99.90;;;;;;4941223;29;20031;-86
2022/01/18 02:41:54;;;;;;;10.15;2.42;;;2.80;99.90;;;;;;4940692;29;20056;-87
2022/01/18 02:44:20;;;;;;;12.63;2.40;;;2.80;99.90;;;;;;4941955;29;20043;-88
2022/01/18 02:46:46;;;;;;;12.48;2.58;;;2.80;99.90;;;;;;4941116;29;20020;-88
2022/01/18 02:49:12;;;;;;;9.90;2.83;;;2.80;99.90;;;;;;4941958;29;20020;-87
2022/01/18 02:51:38;;;;;;;15.00;2.83;;;2.80;99.90;;;;;;4939065;29;20055;-88
2022/01/18 02:54:09;;;;;;;9.15;2.20;;;2.80;99.90;;;;;;4935048;29;20040;-89
2022/01/18 02:56:41;;;;;;;19.08;2.92;;;2.70;99.90;;;;;;4935770;29;20032;-87
2022/01/18 02:59:24;;;;;;;10.65;3.20;;;2.80;99.90;;;;;;4927540;29;20056;-90
2022/01/18 03:04:42;;;;;;;18.25;2.95;;;2.70;99.90;;;;;;4932902;29;20044;-89
2022/01/18 03:07:09;;;;;;;18.33;2.95;;;2.70;99.90;;;;;;4917924;29;20103;-89
2022/01/18 03:09:35;;;;;;;8.63;2.35;;;2.70;99.90;;;;;;4928986;29;20040;-88
2022/01/18 03:12:02;;;;;;;17.40;2.35;;;2.70;99.90;;;;;;4927634;29;20028;-88
2022/01/18 03:14:28;;;;;;;20.17;2.63;;;2.70;99.90;;;;;;4931908;29;20440;-88
2022/01/18 03:16:54;;;;;;;18.17;2.65;;;2.60;99.90;;;;;;4928952;29;20036;-87
2022/01/18 03:19:20;;;;;;;7.72;2.28;;;2.60;99.90;;;;;;4930155;29;20024;-87
2022/01/18 03:21:46;;;;;;;10.63;2.83;;;2.60;99.90;;;;;;4927161;29;20446;-89
2022/01/18 03:24:20;;;;;;;10.05;2.28;;;2.60;99.90;;;;;;4928784;29;20079;-87
2022/01/18 03:29:30;;;;;;;16.52;2.28;;;2.60;99.90;;;;;;4928716;29;20056;-88
2022/01/18 03:31:56;;;;;;;9.15;2.45;;;2.60;99.90;;;;;;4929890;29;20029;-88
2022/01/18 03:34:22;;;;;;;7.07;2.00;;;2.60;99.90;;;;;;4931831;29;20059;-88
2022/01/18 03:36:48;;;;;;;9.23;2.53;;;2.60;99.90;;;;;;4931337;29;20027;-88
2022/01/18 03:39:14;;;;;;;14.38;3.10;;;2.60;99.90;;;;;;4930087;29;20126;-89
2022/01/18 03:41:40;;;;;;;12.77;2.58;;;2.60;99.90;;;;;;4932788;29;20464;-87
2022/01/18 03:44:06;;;;;;;16.02;2.40;;;2.60;99.90;;;;;;4938356;29;20109;-87
2022/01/18 03:46:36;;;;;;;14.63;2.88;;;2.60;99.90;;;;;;4939751;29;20040;-87
2022/01/18 03:49:04;;;;;;;9.45;2.03;;;2.60;99.90;;;;;;4937428;29;20046;-87
2022/01/18 03:51:31;;;;;;;10.15;2.50;;;2.60;99.90;;;;;;4936261;29;20060;-88
2022/01/18 03:53:57;;;;;;;11.63;2.80;;;2.60;99.90;;;;;;4939680;29;20032;-88
2022/01/18 03:56:22;;;;;;;14.70;2.83;;;2.70;99.90;;;;;;4941954;29;20068;-85
2022/01/18 03:58:48;;;;;;;17.67;2.53;;;2.60;99.90;;;;;;4942824;29;20026;-87
2022/01/18 04:01:14;;;;;;;12.43;2.75;;;2.60;99.90;;;;;;4926509;29;20032;-87
2022/01/18 04:03:41;;;;;;;18.30;2.88;;;2.60;99.90;;;;;;4943189;29;20032;-86
2022/01/18 04:06:07;;;;;;;11.43;2.70;;;2.60;99.90;;;;;;4937910;29;20028;-88
2022/01/18 04:08:33;;;;;;;8.85;2.35;;;2.60;99.90;;;;;;4938799;29;20096;-88
2022/01/18 04:10:59;;;;;;;11.82;2.28;;;2.60;99.90;;;;;;4939715;29;20024;-88
2022/01/18 04:13:25;;;;;;;11.02;2.75;;;2.60;99.90;;;;;;4940125;29;20039;-88
2022/01/18 04:15:51;;;;;;;15.73;2.53;;;2.60;99.90;;;;;;4940327;29;20059;-87
2022/01/18 04:28:55;;;;;;;19.40;2.40;;;2.60;99.90;;;;;;4941300;29;20035;-87
2022/01/18 04:31:22;;;;;;;11.35;1.85;;;2.50;99.90;;;;;;4941747;29;20028;-85
2022/01/18 04:33:48;;;;;;;11.85;1.90;;;2.50;99.90;;;;;;4942010;29;20052;-85
2022/01/18 04:36:14;;;;;;;15.32;1.95;;;2.50;99.90;;;;;;4941542;29;20032;-86
2022/01/18 04:38:41;;;;;;;10.88;2.13;;;2.50;99.90;;;;;;4942180;29;20032;-86
2022/01/18 04:41:10;;;;;;;11.65;2.22;;;2.50;99.90;;;;;;4941078;29;20036;-87
2022/01/18 04:48:24;;;;;;;11.13;2.08;;;2.50;99.90;;;;;;4940391;29;20547;-86
2022/01/18 04:49:11;;;;;;;10.25;2.17;;;2.50;99.90;;;;;;4941628;29;20024;-86
2022/01/18 04:51:37;;;;;;;17.15;3.08;;;2.50;99.90;;;;;;4939249;29;20042;-88
2022/01/18 04:54:06;;;;;;;12.65;2.40;;;2.50;99.90;;;;;;4939552;29;20492;-89
2022/01/18 04:59:07;;;;;;;13.52;2.10;;;2.50;99.90;;;;;;4928107;29;20040;-87
2022/01/18 05:01:34;;;;;;;17.08;2.45;;;2.50;99.90;;;;;;4924271;29;20066;-89
2022/01/18 05:04:00;;;;;;;27.48;2.75;;;2.50;99.90;;;;;;4928308;29;20020;-88
2022/01/18 05:06:26;;;;;;;9.77;1.90;;;2.50;99.90;;;;;;4929294;29;20056;-89
2022/01/18 05:08:53;;;;;;;13.90;2.15;;;2.50;99.90;;;;;;4929781;29;20020;-87
2022/01/18 05:11:22;;;;;;;25.73;2.72;;;2.50;99.90;;;;;;4935581;29;20032;-87
2022/01/18 05:16:30;;;;;;;11.70;2.38;;;2.50;99.90;;;;;;4930113;29;20060;-87
2022/01/18 05:24:29;;;;;;;15.00;2.63;;;2.40;99.90;;;;;;4940791;29;20044;-85
2022/01/18 05:26:58;;;;;;;18.95;2.67;;;2.40;99.90;;;;;;4940947;29;20020;-86
2022/01/18 05:29:24;;;;;;;16.52;3.05;;;2.50;99.90;;;;;;4941056;29;20019;-86
2022/01/18 05:31:50;;;;;;;18.67;2.92;;;2.40;99.90;;;;;;4940398;29;20080;-86
2022/01/18 05:34:16;;;;;;;14.43;3.22;;;2.40;99.90;;;;;;4940479;29;20009;-85
2022/01/18 05:39:18;;;;;;;20.10;2.90;;;2.50;99.90;;;;;;4723429;27;20055;-90
2022/01/18 05:41:45;;;;;;;13.40;2.85;;;2.50;99.90;;;;;;4954433;29;20464;-89
2022/01/18 05:44:10;;;;;;;21.70;3.25;;;2.50;99.90;;;;;;4954586;29;20031;-91
2022/01/18 05:46:36;;;;;;;17.90;2.80;;;2.50;99.90;;;;;;4955846;29;20028;-89
2022/01/18 05:49:02;;;;;;;15.45;2.72;;;2.50;99.90;;;;;;4957151;29;20091;-90
2022/01/18 05:51:29;;;;;;;19.65;2.95;;;2.50;99.90;;;;;;4962656;29;20056;-88
2022/01/18 05:53:55;;;;;;;19.63;2.95;;;2.50;99.90;;;;;;4946913;29;20023;-89
2022/01/18 05:56:21;;;;;;;18.90;3.22;;;2.50;99.90;;;;;;4977069;28;20035;-90
2022/01/18 05:58:49;;;;;;;30.45;3.00;;;2.60;99.90;;;;;;4959379;29;20038;-88
2022/01/18 06:01:25;;;;;;;17.25;3.10;;;2.60;99.90;;;;;;4962374;29;20032;-89
2022/01/18 06:09:13;;;;;;;16.58;3.22;;;2.60;99.90;;;;;;4962770;29;19903;-90
2022/01/18 06:11:40;;;;;;;13.90;3.10;;;2.60;99.90;;;;;;4962153;29;20016;-91
2022/01/18 06:14:07;;;;;;;13.18;4.05;;;2.60;99.90;;;;;;4962569;29;20059;-89
2022/01/18 06:16:33;;;;;;;14.77;3.08;;;2.70;99.90;;;;;;4962433;29;20020;-90
2022/01/18 06:18:59;;;;;;;15.85;3.30;;;2.60;99.90;;;;;;4945206;29;20100;-88
2022/01/18 06:21:25;;;;;;;7.75;2.35;;;2.60;99.90;;;;;;4976458;29;20023;-89
2022/01/18 06:23:51;;;;;;;17.85;4.50;;;2.60;99.90;;;;;;4977338;29;20047;-90
2022/01/18 06:26:17;;;;;;;13.15;2.80;;;2.60;99.90;;;;;;4945369;29;20027;-90
2022/01/18 06:28:46;;;;;;;14.57;3.08;;;2.60;99.90;;;;;;4976878;28;20020;-89
2022/01/18 06:31:13;;;;;;;26.20;3.83;;;2.60;99.90;;;;;;4960624;29;20075;-91
2022/01/18 06:33:39;;;;;;;16.73;2.63;;;2.60;99.90;;;;;;4961975;29;20024;-91
2022/01/18 06:36:16;;;;;;;18.13;3.13;;;2.70;99.90;;;;;;4958196;29;20080;-91
2022/01/18 06:38:45;;;;;;;17.30;2.67;;;2.70;99.90;;;;;;4955634;29;20047;-91
2022/01/18 06:41:11;;;;;;;12.68;3.20;;;2.70;99.90;;;;;;4971608;29;20058;-89
2022/01/18 06:43:37;;;;;;;16.88;3.20;;;2.70;99.90;;;;;;4960194;29;20047;-90
2022/01/18 06:46:03;;;;;;;12.20;2.97;;;2.70;99.90;;;;;;4938317;29;20028;-91
2022/01/18 06:48:29;;;;;;;19.08;3.35;;;2.70;99.90;;;;;;4938139;29;20042;-89
2022/01/18 06:50:55;;;;;;;14.85;2.95;;;2.70;99.90;;;;;;4972286;29;20020;-89
2022/01/18 06:53:21;;;;;;;16.52;3.58;;;2.70;99.90;;;;;;4945294;29;20112;-89
2022/01/18 06:55:51;;;;;;;8.82;3.20;;;2.80;99.90;;;;;;4961404;29;20095;-90
2022/01/18 06:58:17;;;;;;;18.00;3.33;;;2.80;99.90;;;;;;4976753;29;20051;-88
2022/01/18 07:00:43;;;;;;;14.02;3.80;;;2.80;99.90;;;;;;4960971;29;20032;-87
2022/01/18 07:03:09;;;;;;;16.52;3.63;;;2.80;99.90;;;;;;4960392;29;20054;-89
2022/01/18 07:05:36;;;;;;;19.50;3.20;;;2.80;99.90;;;;;;4959896;29;20047;-89
2022/01/18 07:08:13;;;;;;;18.75;3.22;;;2.80;99.90;;;;;;5065905;23;20099;-90
2022/01/18 07:10:39;;;;;;;15.52;3.90;;;2.80;99.90;;;;;;4960335;29;20047;-88
2022/01/18 07:13:05;;;;;;;14.27;3.58;;;2.90;99.90;;;;;;4960544;29;20026;-88
2022/01/18 07:15:31;;;;;;;15.13;3.10;;;3.00;99.90;;;;;;4961064;29;20047;-89
2022/01/18 07:17:57;;;;;;;23.90;3.30;;;3.00;99.90;;;;;;4960172;29;20090;-87
2022/01/18 07:20:23;;;;;;;16.20;2.97;;;3.10;99.90;;;;;;4944438;29;20035;-87
2022/01/18 07:22:48;;;;;;;15.73;3.55;;;3.10;99.90;;;;;;4960984;29;20015;-88
2022/01/18 07:25:17;;;;;;;9.85;2.88;;;3.10;99.90;;;;;;4960565;29;20271;-88
2022/01/18 07:27:42;;;;;;;16.23;3.97;;;3.10;99.90;;;;;;4944391;29;20020;-86
2022/01/18 07:30:09;;;;;;;19.33;3.78;;;3.10;99.90;;;;;;4960014;29;20095;-86
2022/01/18 07:32:35;;;;;;;19.23;4.10;;;3.10;99.90;;;;;;4941475;29;20023;-87
2022/01/18 07:35:02;;;;;;;19.85;3.97;;;3.10;99.90;;;;;;4954990;29;20054;-84
2022/01/18 07:37:28;;;;;;;17.90;4.57;;;3.10;99.90;;;;;;4949259;29;20023;-87
2022/01/18 07:39:54;;;;;;;13.18;3.58;;;3.10;99.90;;;;;;4947976;29;20082;-87
2022/01/18 07:42:23;;;;;;;15.93;3.95;;;3.20;99.90;;;;;;4953403;29;20019;-87
2022/01/18 07:44:51;;;;;;;16.48;3.92;;;3.20;99.90;;;;;;4965027;29;20054;-88
2022/01/18 07:47:17;;;;;;;12.32;3.67;;;3.20;99.90;;;;;;4960114;28;20084;-88
2022/01/18 07:49:44;;;;;;;17.52;3.80;;;3.20;99.90;;;;;;4954984;29;20055;-85
2022/01/18 07:52:09;;;;;;;15.07;3.92;;;3.30;99.90;;;;;;4960585;29;20015;-86
2022/01/18 07:54:37;;;;;;;19.27;4.60;;;3.30;99.90;;;;;;4942246;29;20388;-89
2022/01/18 07:57:03;;;;;;;15.00;3.58;;;3.40;99.90;;;;;;4948525;29;20035;-90
2022/01/18 07:59:29;;;;;;;14.55;3.47;;;3.40;99.90;;;;;;4946979;29;20120;-88
2022/01/18 08:01:55;;;;;;;14.50;3.53;;;3.40;99.90;;;;;;4949031;29;20508;-89
2022/01/18 08:04:22;;;;;;;16.58;4.00;;;3.40;99.90;;;;;;4949253;29;20023;-89
2022/01/18 08:06:48;;;;;;;21.25;4.10;;;3.40;99.90;;;;;;4933667;29;20051;-90
2022/01/18 08:09:18;;;;;;;19.08;4.53;;;3.50;99.90;;;;;;4950381;29;20036;-86
2022/01/18 08:11:45;;;;;;;15.10;4.68;;;3.50;99.90;;;;;;4948788;29;20039;-88
2022/01/18 08:14:14;;;;;;;18.30;4.90;;;3.50;99.90;;;;;;4932223;29;20035;-88
2022/01/18 08:16:59;;;;;;;15.15;4.93;;;3.60;99.90;;;;;;4949232;29;20035;-88
2022/01/18 08:19:26;;;;;;;15.98;4.65;;;3.60;99.90;;;;;;4947558;29;20122;-89
2022/01/18 08:21:52;;;;;;;25.05;5.75;;;3.70;99.90;;;;;;4945483;29;20067;-88
2022/01/18 08:24:18;;;;;;;22.10;4.82;;;3.70;99.90;;;;;;4945144;29;20020;-88
2022/01/18 08:26:44;;;;;;;17.38;3.75;;;3.80;99.90;;;;;;4943819;29;20651;-89
2022/01/18 08:29:12;;;;;;;20.25;4.68;;;3.90;99.90;;;;;;4930360;29;20092;-89
2022/01/18 08:31:38;;;;;;;19.42;3.90;;;4.00;99.90;;;;;;4955025;29;20035;-88
2022/01/18 08:34:12;;;;;;;24.98;4.78;;;4.10;99.90;;;;;;4947513;29;20039;-91
2022/01/18 08:36:38;;;;;;;17.90;4.80;;;4.30;99.90;;;;;;4944910;29;20043;-90
2022/01/18 08:39:05;;;;;;;22.15;5.30;;;4.50;99.90;;;;;;4951285;29;20030;-87
2022/01/18 08:41:32;;;;;;;20.88;4.55;;;4.70;99.90;;;;;;4945550;29;20070;-89
2022/01/18 08:43:59;;;;;;;16.17;3.92;;;5.10;99.90;;;;;;4929349;29;20023;-87
2022/01/18 08:46:25;;;;;;;16.20;3.95;;;5.60;99.90;;;;;;4970743;29;20038;-88
2022/01/18 08:48:52;;;;;;;16.30;4.15;;;6.40;99.90;;;;;;4955036;29;20032;-91
2022/01/18 08:51:20;;;;;;;19.02;4.18;;;6.80;99.90;;;;;;4949870;29;20026;-88
2022/01/18 08:53:50;;;;;;;14.55;3.95;;;7.10;99.90;;;;;;4958852;29;20118;-90
2022/01/18 08:56:18;;;;;;;18.52;3.90;;;7.20;99.90;;;;;;4965525;28;20034;-88
2022/01/18 08:58:45;;;;;;;21.23;4.18;;;7.70;99.90;;;;;;4966791;28;20078;-88
2022/01/18 09:01:11;;;;;;;19.23;3.90;;;7.90;99.90;;;;;;4964756;29;20042;-89
2022/01/18 09:03:39;;;;;;;17.88;3.85;;;8.10;99.90;;;;;;4965585;28;20051;-87
2022/01/18 09:06:06;;;;;;;17.52;3.63;;;9.00;99.90;;;;;;4964082;28;20035;-88
2022/01/18 09:08:34;;;;;;;12.65;3.83;;;9.50;99.90;;;;;;4972744;28;20023;-89
2022/01/18 09:11:00;;;;;;;14.20;3.90;;;10.10;99.80;;;;;;4977638;28;20055;-88
2022/01/18 09:13:26;;;;;;;19.45;4.22;;;10.60;98.70;;;;;;4973020;28;20507;-87
2022/01/18 09:15:52;;;;;;;17.70;4.07;;;11.00;97.80;;;;;;4978483;28;20051;-88
2022/01/18 09:18:18;;;;;;;15.95;3.60;;;11.30;96.80;;;;;;4977883;28;20038;-89
2022/01/18 09:20:44;;;;;;;16.55;3.67;;;11.70;96.00;;;;;;4977945;28;20037;-89
2022/01/18 09:23:10;;;;;;;13.63;3.28;;;12.50;94.40;;;;;;4977629;28;20019;-89
2022/01/18 09:25:36;;;;;;;18.42;3.30;;;12.40;94.00;;;;;;4977947;28;20043;-87
2022/01/18 09:28:03;;;;;;;20.35;3.92;;;12.50;93.30;;;;;;4955674;28;20035;-88
2022/01/18 09:30:30;;;;;;;12.18;3.70;;;12.20;93.50;;;;;;4965795;29;20059;-84
2022/01/18 09:32:58;;;;;;;9.50;3.22;;;11.40;93.60;;;;;;4960491;29;20928;-85
2022/01/18 09:35:24;;;;;;;18.05;4.18;;;10.70;94.70;;;;;;4962838;29;20019;-86
2022/01/18 09:37:51;;;;;;;17.80;4.18;;;10.80;95.30;;;;;;4962986;29;20038;-83
2022/01/18 09:40:19;;;;;;;17.08;3.50;;;11.00;94.90;;;;;;4968042;29;20070;-84
2022/01/18 09:42:47;;;;;;;18.75;3.45;;;11.30;94.90;;;;;;4962961;29;20023;-87
2022/01/18 09:45:16;;;;;;;14.02;3.50;;;12.00;93.90;;;;;;4983900;28;20083;-87
2022/01/18 09:47:47;;;;;;;18.88;3.45;;;13.00;92.10;;;;;;4952767;28;20026;-86
2022/01/18 09:50:17;;;;;;;16.67;4.07;;;13.70;91.40;;;;;;4955393;28;20035;-87
2022/01/18 09:52:43;;;;;;;18.95;3.53;;;14.10;90.00;;;;;;4970045;28;20098;-87
2022/01/18 09:55:09;;;;;;;17.08;3.28;;;14.40;89.40;;;;;;4971370;28;20083;-86
2022/01/18 09:57:36;;;;;;;19.08;3.95;;;15.00;86.00;;;;;;4965426;28;20035;-88
2022/01/18 10:00:04;;;;;;;19.17;4.28;;;15.30;85.20;;;;;;4952337;28;20040;-88
2022/01/18 10:02:38;;;;;;;22.33;4.00;;;16.00;81.90;;;;;;4947170;29;20043;-87
2022/01/18 10:05:39;;;;;;;12.07;3.38;;;15.20;81.20;;;;;;4948837;29;20038;-87
2022/01/18 10:08:08;;;;;;;17.38;4.25;;;15.80;79.80;;;;;;4949063;29;20050;-87
2022/01/18 10:10:37;;;;;;;16.80;4.22;;;16.10;78.90;;;;;;4944328;29;20039;-87
2022/01/18 10:13:03;;;;;;;15.75;3.95;;;16.10;78.20;;;;;;4941567;29;20073;-87
2022/01/18 10:15:29;;;;;;;15.15;3.72;;;16.00;77.40;;;;;;4928208;29;20032;-87
2022/01/18 10:18:07;;;;;;;18.75;3.92;;;15.80;76.60;;;;;;4947465;29;20032;-86
2022/01/18 10:20:49;;;;;;;15.68;3.78;;;14.60;77.40;;;;;;4944044;29;20036;-87
2022/01/18 10:23:26;;;;;;;16.63;4.32;;;13.60;78.80;;;;;;4948365;29;20058;-85
2022/01/18 10:25:53;;;;;;;20.27;3.72;;;13.10;81.70;;;;;;4955382;29;20035;-87
2022/01/18 10:28:34;;;;;;;13.32;3.50;;;12.70;82.70;;;;;;4951761;29;20448;-88
2022/01/18 10:31:05;;;;;;;19.73;3.78;;;13.10;81.80;;;;;;4950732;29;20098;-87
2022/01/18 10:33:36;;;;;;;12.23;2.90;;;12.70;82.10;;;;;;4951358;29;20042;-88
2022/01/18 10:36:12;;;;;;;14.68;3.35;;;12.40;81.50;;;;;;4952481;29;20050;-88
2022/01/18 10:38:45;;;;;;;15.48;3.33;;;12.00;82.60;;;;;;4948844;29;20035;-88
2022/01/18 10:41:28;;;;;;;14.63;3.38;;;11.40;84.30;;;;;;4950856;29;20551;-86
2022/01/18 10:44:14;;;;;;;18.80;4.20;;;11.90;83.90;;;;;;4932841;29;20031;-86
2022/01/18 10:46:49;;;;;;;12.68;2.92;;;12.60;82.50;;;;;;4951184;29;20115;-86
2022/01/18 10:49:36;;;;;;;17.83;3.50;;;12.60;81.90;;;;;;4964621;29;20035;-87
2022/01/18 10:52:14;;;;;;;15.48;2.80;;;12.70;82.20;;;;;;4946870;29;20421;-86
2022/01/18 10:54:48;;;;;;;14.27;3.42;;;12.40;82.20;;;;;;4955971;29;20034;-88
2022/01/18 10:57:23;;;;;;;17.15;3.60;;;11.60;83.50;;;;;;4959084;29;20070;-88
2022/01/18 11:00:02;;;;;;;16.80;3.28;;;10.80;85.30;;;;;;4946268;29;20032;-88
2022/01/18 11:02:38;;;;;;;20.63;3.95;;;10.60;86.90;;;;;;4937943;29;20048;-87
2022/01/18 11:05:32;;;;;;;14.60;3.88;;;11.10;86.00;;;;;;4926272;29;20024;-87
2022/01/18 11:08:04;;;;;;;13.10;3.28;;;11.60;85.10;;;;;;4923471;29;20717;-87
2022/01/18 11:10:33;;;;;;;15.95;3.78;;;12.60;82.40;;;;;;4927031;29;20051;-86
2022/01/18 11:13:04;;;;;;;15.88;4.35;;;13.40;80.60;;;;;;4934651;29;20088;-87
2022/01/18 11:15:32;;;;;;;13.73;3.08;;;14.00;78.40;;;;;;4940224;29;20028;-86
2022/01/18 11:18:02;;;;;;;15.32;3.78;;;14.50;77.50;;;;;;4936390;29;20036;-87
2022/01/18 11:20:32;;;;;;;19.35;4.45;;;15.00;76.00;;;;;;4937658;29;20024;-86
2022/01/18 11:22:59;;;;;;;16.98;3.47;;;15.60;74.60;;;;;;4930982;29;20060;-86
2022/01/18 11:25:28;;;;;;;15.38;3.88;;;16.00;73.40;;;;;;4929059;29;20024;-85
2022/01/18 11:27:56;;;;;;;16.58;3.80;;;16.40;71.70;;;;;;4929302;29;20032;-86
2022/01/18 11:30:25;;;;;;;20.73;4.28;;;16.50;70.80;;;;;;4929448;29;20032;-88
2022/01/18 11:32:53;;;;;;;20.77;4.28;;;16.60;69.80;;;;;;4933407;29;20036;-85
2022/01/18 11:35:43;;;;;;;12.27;3.53;;;15.90;70.10;;;;;;4935872;29;20117;-88
2022/01/18 11:38:45;;;;;;;18.90;3.22;;;15.50;70.30;;;;;;4975551;23;20048;-88
2022/01/18 11:41:35;;;;;;;13.75;3.85;;;15.30;70.60;;;;;;4960558;29;20097;-86
2022/01/18 11:44:16;;;;;;;10.88;2.90;;;15.20;70.90;;;;;;4960873;29;20027;-85
2022/01/18 11:46:52;;;;;;;15.43;3.30;;;14.40;71.60;;;;;;4961442;29;20040;-86
2022/01/18 11:49:22;;;;;;;17.02;3.65;;;14.00;72.90;;;;;;4959943;29;20040;-86
2022/01/18 11:51:59;;;;;;;19.95;3.53;;;13.80;73.00;;;;;;4955468;29;20495;-85
2022/01/18 11:54:44;;;;;;;11.82;3.22;;;13.10;74.30;;;;;;4954805;29;20040;-88
2022/01/18 11:57:27;;;;;;;13.65;3.72;;;12.20;76.00;;;;;;4955182;29;20047;-88
2022/01/18 11:59:57;;;;;;;21.85;5.85;;;11.40;78.10;;;;;;4938208;29;20032;-89
2022/01/18 12:02:38;;;;;;;28.83;4.88;;;10.50;80.70;;;;;;4953558;29;20134;-88
2022/01/18 12:05:19;;;;;;;20.58;4.43;;;9.40;83.50;;;;;;4953875;29;20079;-88
2022/01/18 12:07:47;;;;;;;22.33;4.32;;;8.50;86.00;;;;;;4951837;29;20066;-89
2022/01/18 12:10:32;;;;;;;22.25;4.00;;;8.20;87.90;;;;;;4953656;29;20055;-87
2022/01/18 12:13:01;;;;;;;17.08;3.45;;;7.90;89.50;;;;;;4953159;29;20024;-88
2022/01/18 12:15:33;;;;;;;13.27;3.17;;;7.70;90.20;;;;;;4967780;29;20028;-88
2022/01/18 12:18:03;;;;;;;19.33;3.60;;;7.50;90.80;;;;;;4950427;29;20035;-88
2022/01/18 12:20:32;;;;;;;15.85;3.50;;;7.40;91.10;;;;;;4948378;29;20530;-87
2022/01/18 12:22:59;;;;;;;15.82;3.53;;;7.30;91.50;;;;;;4948503;29;20054;-89
2022/01/18 12:25:31;;;;;;;16.02;3.20;;;7.30;91.70;;;;;;4951167;29;20055;-88
2022/01/18 12:28:02;;;;;;;16.35;3.30;;;7.30;92.20;;;;;;4952262;29;20040;-89
2022/01/18 12:30:54;;;;;;;15.65;2.95;;;7.20;91.80;;;;;;4952267;29;20038;-87
2022/01/18 12:33:21;;;;;;;20.27;4.40;;;7.00;92.00;;;;;;4948452;29;20408;-90
2022/01/18 12:35:48;;;;;;;20.95;5.13;;;6.90;92.30;;;;;;4948464;29;20028;-88
2022/01/18 12:38:23;;;;;;;22.70;4.60;;;6.80;92.30;;;;;;4933145;29;20047;-89
2022/01/18 12:40:49;;;;;;;16.50;3.40;;;6.90;92.70;;;;;;4947561;29;20036;-89
2022/01/18 12:45:42;;;;;;;15.20;3.50;;;6.80;93.10;;;;;;4948398;29;20380;-90
2022/01/18 12:48:10;;;;;;;22.35;3.97;;;6.80;93.40;;;;;;4947463;29;20047;-89
2022/01/18 12:50:49;;;;;;;18.70;3.00;;;6.70;93.60;;;;;;4949876;29;20031;-86
2022/01/18 12:53:20;;;;;;;23.23;3.70;;;6.60;93.90;;;;;;4949567;29;20039;-88
2022/01/18 12:55:48;;;;;;;18.75;3.42;;;6.50;94.40;;;;;;4953301;29;20051;-88
2022/01/18 12:58:22;;;;;;;18.25;3.53;;;6.40;94.60;;;;;;4956673;29;20644;-87
2022/01/18 13:00:51;;;;;;;15.05;3.35;;;6.50;94.90;;;;;;4955703;29;20137;-85
2022/01/18 13:03:25;;;;;;;23.92;4.80;;;6.60;95.40;;;;;;4952239;29;20035;-88
2022/01/18 13:05:52;;;;;;;;;;;6.60;95.30;;;;;;4953042;29;20035;-88
2022/01/18 13:08:20;;;;;;;22.92;4.38;;;6.80;95.30;;;;;;4951537;29;19907;-87
2022/01/18 13:10:49;;;;;;;21.40;5.28;;;6.80;95.10;;;;;;4949674;29;20035;-88
2022/01/18 13:13:19;;;;;;;25.33;4.32;;;6.90;95.10;;;;;;4957294;29;20016;-86
2022/01/18 13:24:40;;;;;;;20.38;3.65;;;6.90;95.40;;;;;;4947859;29;20032;-88
2022/01/18 13:27:07;;;;;;;23.33;3.60;;;6.90;95.40;;;;;;4945960;29;20031;-88
2022/01/18 13:29:32;;;;;;;16.60;3.55;;;6.80;95.70;;;;;;4950071;29;20051;-88
2022/01/18 13:32:13;;;;;;;19.15;2.97;;;6.60;95.40;;;;;;4953486;29;20023;-87
2022/01/18 13:34:44;;;;;;;21.00;3.88;;;6.40;95.90;;;;;;4952605;29;20039;-86
2022/01/18 13:37:13;;;;;;;21.20;3.97;;;6.40;96.00;;;;;;4953714;29;20028;-87
2022/01/18 13:39:46;;;;;;;17.15;5.03;;;6.30;95.80;;;;;;4959131;29;20055;-86
2022/01/18 13:42:15;;;;;;;19.30;3.03;;;6.10;95.50;;;;;;4959484;29;20062;-86
2022/01/18 13:45:11;;;;;;;17.27;3.75;;;6.00;95.70;;;;;;4959930;29;20063;-86
2022/01/18 13:47:42;;;;;;;16.52;3.85;;;6.00;96.10;;;;;;4959412;29;20120;-82
2022/01/18 13:50:28;;;;;;;14.25;3.15;;;5.90;95.90;;;;;;4959048;29;20038;-84
2022/01/18 13:53:01;;;;;;;14.15;3.75;;;6.00;96.20;;;;;;4958967;29;20475;-83
2022/01/18 13:55:28;;;;;;;17.45;3.50;;;6.10;95.90;;;;;;4956679;29;20031;-84
2022/01/18 13:57:58;;;;;;;20.35;3.63;;;6.10;95.80;;;;;;4957802;29;20031;-85
2022/01/18 14:00:26;;;;;;;26.13;5.18;;;6.00;96.10;;;;;;4962352;29;20082;-86
2022/01/18 14:02:52;;;;;;;13.93;3.25;;;5.90;96.40;;;;;;4944704;29;20023;-86
2022/01/18 14:05:21;;;;;;;19.80;4.45;;;5.90;96.50;;;;;;4950233;29;20032;-85
2022/01/18 14:07:59;;;;;;;13.82;3.20;;;5.80;96.90;;;;;;4949342;29;20499;-84
2022/01/18 14:10:25;;;;;;;11.52;3.03;;;5.70;97.00;;;;;;4947405;29;20523;-87
2022/01/18 14:12:51;;;;;;;14.18;2.97;;;5.70;97.30;;;;;;4946069;29;20032;-87
2022/01/18 14:15:41;;;;;;;15.18;3.08;;;5.60;97.30;;;;;;4938114;29;20127;-86
2022/01/18 14:18:07;;;;;;;19.13;4.30;;;5.50;97.50;;;;;;4955322;29;20496;-85